Extreme weather reports worldwide

Rain

Station
 
Location
 
Name
 
Wind
Knots
Gust
Knots
Vis
SM
Temp/Dew
C
Baro
inHg
METAR
 
SKN ENSK Hadsel, NO Stokmarknes Skagen Airport 34 49 2.49 6/3 29.08 ENSK 182150Z 25034G49KT 4000 +RA FEW010 SCT015 BKN022 06/03 Q0985
EVE ENEV Evenes, NO Harstad/Narvik Airport, Evenes 25 47 6.21 6/4 29.11 ENEV 182150Z 23025G47KT 180V250 9999 -RA BKN011 06/04 Q0986 RMK WIND 1400FT 24053G70KT
YYT CYYT St. John's, CA St. John's International Airport 28 46 1 3/3 29.38 CYYT 182205Z 17028G46KT 1SM R16/P6000FT/N RA BR OVC004 03/03 A2938 RMK FG4NS4 SLP956
ANX ENAN Andenes, NO Andøya Airport 22 46 6.21 6/3 29.00 ENAN 182150Z 26022G46KT 220V290 9999 -RA SCT016 BKN031 06/03 Q0982
RVK ENRM Rørvik, NO Rørvik Airport, Ryum 31 41 4.97 7/7 29.56 ENRM 182150Z 23031G41KT 8000 RA BKN009 07/07 Q1001

Station
 
Location
 
Name
 
Wind
Knots
Gust
Knots
Vis
SM
Temp/Dew
C
Baro
inHg
METAR
 
LTK OSLK Latakia, SY Bassel Al-Assad International Airport 23 38 3.11 12/11 29.82 OSLK 182200Z 19023G38KT 5000 SHRA FEW025 CB BKN030 BKN100 12/11 Q1010
BNN ENBN Brønnøy, NO Brønnøysund Airport 21 33 4.97 7/6 29.50 ENBN 182150Z 22021G33KT 8000 RA BKN006 07/06 Q0999
YMH CYMH Mary's Harbour, CA Mary's Harbour Airport 21 32 3 1/0 29.10 CYMH 182203Z AUTO 16021G32KT 3SM -RA BR OVC007 01/00 A2910 RMK SLP856
YQX CYQX Gander, CA Gander International Airport 22 27 4 5/5 29.18 CYQX 182200Z 13022G27KT 4SM RA BR BKN006 OVC011 05/05 A2918 RMK SF6SC2 SLP891
YAY CYAY St. Anthony, CA St. Anthony Airport 20 26 3 2/1 29.05 CYAY 182200Z AUTO 13020G26KT 3SM -RA BR OVC005 02/01 A2905 RMK SLP841
RAR NCRG Avarua, CK Rarotonga International Airport 16 26 4.35 26/25 29.70 NCRG 182200Z AUTO 08016G26KT 7000 -RA SCT014/// BKN028/// BKN042/// 26/25 Q1006
JSY LGSO Syros Island, GR Syros Airport 15 25 5.59 8/1 30.30 LGSO 182150Z 33015G25KT 9000 -RA BKN018 08/01 Q1026
CYR SUCA Colonia del Sacramento, UY Laguna de Los Patos International Airport 14 24 6.21 23/21 29.94 SUCA 182200Z 12014G24KT 9999 -RA BKN013 OVC070 23/21 Q1014
PDP SULS Punta del Este, UY Capitan Corbeta CA Curbelo International Airport 13 24 1.24 21/20 30.00 SULS 182200Z 12013G24KT 090V150 2000 RA BKN008 OVC070 21/20 Q1016
BDU ENDU Målselv, NO Bardufoss Airport 12 24 6.21 5/3 29.00 ENDU 182150Z 22012G24KT 190V260 9999 -RA FEW015 SCT025 BKN035 05/03 Q0982 RERA RMK WIND 1100FT 22029G41KT WIND 2200FT 24025KT
MJF ENMS NO Mosjøen Airport (Kjærstad) 10 22 5.59 8/5 29.44 ENMS 182120Z VRB10G22KT 9000 -RA FEW022 BKN030 08/05 Q0997 RMK WIND 412FT 20013G31KT
GUM PGUM Hagåtña, Guam International Airport, GU Antonio B. Won Pat International Airport 9 16 3 24/23 29.86 PGUM 182208Z 05009G16KT 3SM -RA BR FEW011 BKN017 OVC040 24/24 A2986 RMK AO2 RAB00 P0001 T02440239 $
YQY CYQY Sydney, CA Sydney / J.A. Douglas McCurdy Airport 9 15 15 3/2 29.19 CYQY 182200Z 24009G15KT 15SM -RA BKN009 OVC021 03/02 A2919 RMK ST5SC3 SLP890
ENHE 39 2.17 8/7 29.38 ENHE 182150Z 25039KT 3500 RA BKN008 OVC030 08/07 Q0995 W///S6
ENGC 39 6.21 8/6 29.82 ENGC 182150Z 23039KT 9999 -RA BKN012 08/06 Q1010 W07/S5
BOO ENBO Bodø, NO Bodø Airport 35 6.21 7/5 29.26 ENBO 182150Z 23035KT 9999 -SHRA FEW012 SCT030 BKN043 07/05 Q0991
ENHM 31 7/6 30.03 ENHM 182150Z AUTO 23031KT 6000NDV -RA FEW023/// SCT044/// BKN052/// 07/06 Q1017 W08/S/
ENQA NO Troll A Platform 28 7/6 29.94 ENQA 182150Z AUTO 21028KT 3500NDV -RA BR BKN011/// OVC035/// 07/06 Q1014 W06/S5
ENUN 26 6/5 29.20 ENUN 182150Z AUTO 27026KT 7000NDV -RA OVC019/// 06/05 Q0989 W07/S6
GND TGPY Saint George's, GD Point Salines International Airport 25 6.21 25/23 29.91 TGPY 182200Z 07025KT 9999 -SHRA FEW018 BKN035 25/23 Q1013 NOSIG RMK VCSH-NE, SE, SW
BEY OLBA Beirut, LB Beirut Rafic Hariri International Airport 25 3.11 12/6 30.00 OLBA 182200Z 18025KT 5000 RA FEW020CB BKN023 12/06 Q1016
BEB EGPL Balivanich, GB Benbecula Airport 24 4.35 10/9 29.97 EGPL 182150Z AUTO 22024KT 7000 -RA BKN007/// BKN013/// BKN022/// 10/09 Q1015
MEH ENMH Mehamn, NO Mehamn Airport 23 6.21 2/0 28.88 ENMH 182120Z 20023KT 9999 -RASN BKN024 02/M00 Q0978
TOS ENTC Tromsø, NO Tromsø Airport 23 4.35 3/1 28.97 ENTC 182150Z 23023KT 7000 -SHRA FEW005 BKN024 03/01 Q0981 TEMPO RA BKN012 RMK WIND 2600FT /////KT
AEP SABE Buenos Aires, AR Jorge Newbery Airpark 22 3.11 24/21 29.97 SABE 182210Z 10022KT 5000 RA OVC013 24/21 Q1015 NOSIG
OGN ROYN JP Yonaguni Airport 20 6.21 19/17 30.06 ROYN 182200Z AUTO 05020KT 9999 -RA BKN013 BKN018 OVC060 19/17 Q1018
MVD SUMU Montevideo, UY Carrasco International /General C L Berisso Airport 20 2.49 21/20 29.97 SUMU 182200Z 11020KT 4000 RA BR OVC008 21/20 Q1015 NOSIG
HTY LTDA Hatay, TR Hatay Airport 20 2.49 1/1 29.85 LTDA 182150Z 04020KT 4000 -TSRASN FEW018CB BKN020 01/01 Q1011 RETSRA NOSIG
GLA EGPF Glasgow, GB Glasgow International Airport 19 6.21 9/7 30.21 EGPF 182150Z AUTO 21019KT 9999 -RA OVC009/// //////TCU 09/07 Q1023
SHI RORS Shimojishima, JP Shimojishima Airport 19 6.21 16/14 30.06 RORS 182200Z 05019KT 9999 -SHRA SCT011 BKN020 BKN070 16/14 Q1018
OSY ENNM Namsos, NO Namsos Høknesøra Airport 18 6.21 7/5 29.62 ENNM 182120Z 24018KT 9999 RADZ BKN020 07/05 Q1003
TMJ UTST Termez, UZ Termez Airport 18 2.98 10/7 30.00 UTST 182200Z 25018KT 4800 -SHRA BKN008 OVC040CB 10/07 Q1016 R25/290260 TEMPO 26021G31KT BKN005
MMY ROMY Miyako City, JP Miyako Airport 17 4.97 15/14 30.06 ROMY 182200Z 05017KT 8000 -SHRA FEW008 SCT011 BKN017 15/14 Q1018
ROIG Ishigaki, JP Ishigaki Airport 17 6.21 17/17 30.03 ROIG 182200Z 05017KT 9999 -SHRA FEW008 SCT019 BKN031 17/17 Q1017
EDI EGPH Edinburgh, GB Edinburgh Airport 16 5.59 8/7 30.18 EGPH 182150Z 22016KT 9000 -RA BKN012 08/07 Q1022
EHM PAEH Cape Newenham, US Cape Newenham LRRS Airport 16 5 -2/-4 29.72 PAEH 182207Z AUTO 10016KT 5SM -FZRA BKN065 M02/M04 A2972 RMK AO2 SLP076
DMN KDMN Deming, US Deming Municipal Airport 16 10 14/3 29.98 KDMN 182153Z AUTO 26016KT 10SM -RA BKN060 OVC075 14/04 A2998 RMK AO2 RAB47 SLP124 P0000 T01440039
LKN ENLK Leknes, NO Leknes Airport 16 6.21 6/4 29.14 ENLK 182150Z 26016KT 9999 -RA SCT020 BKN025 06/04 Q0987
ADA LTAF Adana, TR Adana Airport 16 6.21 5/3 29.85 LTAF 182150Z 04016KT 9999 -RA BKN030 OVC080 05/03 Q1011 NOSIG RMK RWY23 06014KT
NTL YWLM Williamtown, AU Newcastle Airport 15 6.21 22/21 30.00 YWLM 182200Z 19015KT 9999 -SHRA SCT010 SCT048 OVC080 22/21 Q1016
SSJ ENST Alstahaug, NO Sandnessjøen Airport (Stokka) 15 3.73 7/6 29.41 ENST 182150Z 21015KT 6000 RA FEW005 SCT007 BKN010 07/06 Q0996 RMK WIND 300FT 22016KT
YBX CYBX Lourdes-De-Blanc-Sablon, CA Lourdes de Blanc Sablon Airport 15 4 1/1 29.01 CYBX 182200Z 10015KT 4SM -RA BR OVC012 01/01 A2901 RMK SC8 SLP827
UAB LTAG Adana, TR İncirlik Air Base 15 6.21 4/4 29.82 LTAG 182150Z 02015KT 9999 -SHRA BKN025 BKN090 04/04 Q1010 NOSIG RMK 6CU025 7AC090
SKD UTSS Samarkand, UZ Samarkand Airport 14 3.73 8/6 29.76 UTSS 182130Z 25014KT 6000 -SHRA OVC037CB 08/06 Q1008 R09/29//50 NOSIG
SUAA Montevideo, UY Angel S Adami Airport 14 0.93 21/20 29.97 SUAA 182200Z 12014KT 1500 RA OVC008 21/20 Q1015